Terminal Aerodrome Forecast
Issued by NWS Denver/Boulder, CO

Home | Current Version | Previous Version | Text Only | Print | Product List | Glossary On
Versions: 1 2 3 4 5 6 7 8 9 10 11 12 13 14 15 16 17 18 19 20 21 22 23 24 25 26 27 28 29 30 31 32 33 34 35 36 37 38 39 40 41 42 43 44 45 46 47 48 49 50
000
FTUS45 KBOU 310906 AAB
TAFDEN
TAF AMD
KDEN 310906Z 3109/0112 34007KT P6SM SCT070 OVC110
     FM311200 29006KT P6SM SCT060 BKN070 BKN100
     FM311600 31006KT P6SM SCT060 BKN100
     FM312000 35010KT P6SM SCT060 BKN080
     FM312200 03008KT P6SM VCSH SCT040 BKN060
      TEMPO 3122/0101 6SM -SHRASN
     FM010400 02014G20KT P6SM VCSH SCT020 BKN040
     FM010600 02012KT 4SM -SHSN SCT008 BKN020 OVC040
      TEMPO 0106/0110 3/4SM -SHSN VV008=

USA.gov is the U.S. government's official web portal to all federal, state and local government web resources and services.